sensor_id;sensor_type;location;lat;lon;timestamp;pressure;altitude;pressure_sealevel;temperature;humidity
53635;BME280;39542;-34.932;138.594;2023-03-21T00:00:17;101440.90;;;23.53;51.95
53635;BME280;39542;-34.932;138.594;2023-03-21T00:00:56;101439.58;;;23.54;52.04
53635;BME280;39542;-34.932;138.594;2023-03-21T00:01:31;101440.34;;;23.53;52.06
53635;BME280;39542;-34.932;138.594;2023-03-21T00:02:06;101440.78;;;23.52;52.11
53635;BME280;39542;-34.932;138.594;2023-03-21T00:02:40;101444.07;;;23.51;52.14
53635;BME280;39542;-34.932;138.594;2023-03-21T00:03:15;101440.26;;;23.53;52.07
53635;BME280;39542;-34.932;138.594;2023-03-21T00:03:49;101441.08;;;23.53;52.07
53635;BME280;39542;-34.932;138.594;2023-03-21T00:04:24;101438.24;;;23.55;52.07
53635;BME280;39542;-34.932;138.594;2023-03-21T00:04:59;101440.08;;;23.57;52.04
53635;BME280;39542;-34.932;138.594;2023-03-21T00:05:37;101439.66;;;23.58;52.09
53635;BME280;39542;-34.932;138.594;2023-03-21T00:06:14;101438.83;;;23.57;52.07
53635;BME280;39542;-34.932;138.594;2023-03-21T00:06:48;101442.04;;;23.55;52.13
53635;BME280;39542;-34.932;138.594;2023-03-21T00:07:23;101445.75;;;23.55;52.15
53635;BME280;39542;-34.932;138.594;2023-03-21T00:07:57;101448.32;;;23.57;52.16
53635;BME280;39542;-34.932;138.594;2023-03-21T00:08:31;101452.97;;;23.60;52.09
53635;BME280;39542;-34.932;138.594;2023-03-21T00:09:06;101458.80;;;23.61;52.05
53635;BME280;39542;-34.932;138.594;2023-03-21T00:09:42;101461.53;;;23.63;51.95
53635;BME280;39542;-34.932;138.594;2023-03-21T00:10:54;101458.67;;;23.62;52.05
53635;BME280;39542;-34.932;138.594;2023-03-21T00:11:28;101454.11;;;23.64;51.99
53635;BME280;39542;-34.932;138.594;2023-03-21T00:12:03;101454.47;;;23.64;52.03
53635;BME280;39542;-34.932;138.594;2023-03-21T00:12:38;101457.30;;;23.63;52.03
53635;BME280;39542;-34.932;138.594;2023-03-21T00:13:14;101455.40;;;23.63;52.06
53635;BME280;39542;-34.932;138.594;2023-03-21T00:13:48;101455.81;;;23.63;52.05
53635;BME280;39542;-34.932;138.594;2023-03-21T00:14:23;101460.19;;;23.66;51.99
53635;BME280;39542;-34.932;138.594;2023-03-21T00:14:57;101462.35;;;23.67;52.03
53635;BME280;39542;-34.932;138.594;2023-03-21T00:15:32;101465.41;;;23.66;52.05
53635;BME280;39542;-34.932;138.594;2023-03-21T00:16:08;101465.90;;;23.68;52.04
53635;BME280;39542;-34.932;138.594;2023-03-21T00:16:44;101464.89;;;23.67;52.01
53635;BME280;39542;-34.932;138.594;2023-03-21T00:17:20;101466.52;;;23.69;52.03
53635;BME280;39542;-34.932;138.594;2023-03-21T00:17:56;101462.22;;;23.68;52.08
53635;BME280;39542;-34.932;138.594;2023-03-21T00:18:30;101464.12;;;23.70;52.08
53635;BME280;39542;-34.932;138.594;2023-03-21T00:19:05;101463.48;;;23.73;52.04
53635;BME280;39542;-34.932;138.594;2023-03-21T00:19:40;101464.94;;;23.72;52.07
53635;BME280;39542;-34.932;138.594;2023-03-21T00:20:14;101467.96;;;23.70;52.12
53635;BME280;39542;-34.932;138.594;2023-03-21T00:20:57;101467.31;;;23.71;52.11
53635;BME280;39542;-34.932;138.594;2023-03-21T00:21:32;101473.91;;;23.72;52.04
53635;BME280;39542;-34.932;138.594;2023-03-21T00:22:06;101475.90;;;23.72;52.15
53635;BME280;39542;-34.932;138.594;2023-03-21T00:22:42;101475.20;;;23.72;52.16
53635;BME280;39542;-34.932;138.594;2023-03-21T00:23:17;101476.57;;;23.70;52.20
53635;BME280;39542;-34.932;138.594;2023-03-21T00:23:53;101478.88;;;23.70;52.18
53635;BME280;39542;-34.932;138.594;2023-03-21T00:24:28;101479.52;;;23.73;52.13
53635;BME280;39542;-34.932;138.594;2023-03-21T00:25:03;101478.78;;;23.74;52.17
53635;BME280;39542;-34.932;138.594;2023-03-21T00:25:38;101479.13;;;23.73;52.18
53635;BME280;39542;-34.932;138.594;2023-03-21T00:26:13;101481.02;;;23.71;52.18
53635;BME280;39542;-34.932;138.594;2023-03-21T00:26:48;101484.29;;;23.71;52.26
53635;BME280;39542;-34.932;138.594;2023-03-21T00:27:23;101484.73;;;23.70;52.23
53635;BME280;39542;-34.932;138.594;2023-03-21T00:27:57;101484.75;;;23.71;52.24
53635;BME280;39542;-34.932;138.594;2023-03-21T00:28:31;101486.34;;;23.73;52.18
53635;BME280;39542;-34.932;138.594;2023-03-21T00:29:06;101490.15;;;23.74;52.17
53635;BME280;39542;-34.932;138.594;2023-03-21T00:29:40;101493.22;;;23.76;52.16
53635;BME280;39542;-34.932;138.594;2023-03-21T00:30:16;101491.11;;;23.75;52.21
53635;BME280;39542;-34.932;138.594;2023-03-21T00:30:55;101493.68;;;23.75;52.20
53635;BME280;39542;-34.932;138.594;2023-03-21T00:31:30;101493.69;;;23.74;52.23
53635;BME280;39542;-34.932;138.594;2023-03-21T00:32:04;101496.54;;;23.74;52.21
53635;BME280;39542;-34.932;138.594;2023-03-21T00:32:39;101495.10;;;23.71;52.26
53635;BME280;39542;-34.932;138.594;2023-03-21T00:33:13;101496.34;;;23.72;52.22
53635;BME280;39542;-34.932;138.594;2023-03-21T00:33:48;101495.47;;;23.73;52.17
53635;BME280;39542;-34.932;138.594;2023-03-21T00:34:22;101493.61;;;23.77;52.22
53635;BME280;39542;-34.932;138.594;2023-03-21T00:34:57;101493.34;;;23.79;52.15
53635;BME280;39542;-34.932;138.594;2023-03-21T00:35:31;101494.04;;;23.78;52.18
53635;BME280;39542;-34.932;138.594;2023-03-21T00:36:07;101491.62;;;23.76;52.23
53635;BME280;39542;-34.932;138.594;2023-03-21T00:36:43;101490.10;;;23.76;52.32
53635;BME280;39542;-34.932;138.594;2023-03-21T00:37:17;101492.73;;;23.77;52.21
53635;BME280;39542;-34.932;138.594;2023-03-21T00:37:53;101492.76;;;23.77;52.23
53635;BME280;39542;-34.932;138.594;2023-03-21T00:38:27;101493.11;;;23.80;52.21
53635;BME280;39542;-34.932;138.594;2023-03-21T00:39:01;101491.08;;;23.80;52.22
53635;BME280;39542;-34.932;138.594;2023-03-21T00:39:36;101493.89;;;23.79;52.21
53635;BME280;39542;-34.932;138.594;2023-03-21T00:40:12;101496.18;;;23.79;52.25
53635;BME280;39542;-34.932;138.594;2023-03-21T00:40:46;101499.09;;;23.79;52.24
53635;BME280;39542;-34.932;138.594;2023-03-21T00:41:21;101501.12;;;23.79;52.23
53635;BME280;39542;-34.932;138.594;2023-03-21T00:41:55;101500.87;;;23.80;52.26
53635;BME280;39542;-34.932;138.594;2023-03-21T00:42:30;101500.37;;;23.81;52.23
53635;BME280;39542;-34.932;138.594;2023-03-21T00:43:05;101501.17;;;23.81;52.22
53635;BME280;39542;-34.932;138.594;2023-03-21T00:43:41;101499.06;;;23.79;52.27
53635;BME280;39542;-34.932;138.594;2023-03-21T00:44:15;101502.51;;;23.80;52.30
53635;BME280;39542;-34.932;138.594;2023-03-21T00:44:49;101499.65;;;23.82;52.24
53635;BME280;39542;-34.932;138.594;2023-03-21T00:45:24;101498.39;;;23.84;52.20
53635;BME280;39542;-34.932;138.594;2023-03-21T00:45:59;101499.11;;;23.83;52.26
53635;BME280;39542;-34.932;138.594;2023-03-21T00:46:33;101496.41;;;23.80;52.25
53635;BME280;39542;-34.932;138.594;2023-03-21T00:47:10;101494.77;;;23.80;52.24
53635;BME280;39542;-34.932;138.594;2023-03-21T00:47:45;101494.96;;;23.81;52.33
53635;BME280;39542;-34.932;138.594;2023-03-21T00:48:20;101490.82;;;23.84;52.24
53635;BME280;39542;-34.932;138.594;2023-03-21T00:48:55;101488.71;;;23.84;52.22
53635;BME280;39542;-34.932;138.594;2023-03-21T00:49:30;101486.88;;;23.85;52.20
53635;BME280;39542;-34.932;138.594;2023-03-21T00:50:05;101485.54;;;23.84;52.23
53635;BME280;39542;-34.932;138.594;2023-03-21T00:50:41;101484.54;;;23.82;52.29
53635;BME280;39542;-34.932;138.594;2023-03-21T00:51:21;101484.20;;;23.82;52.28
53635;BME280;39542;-34.932;138.594;2023-03-21T00:51:56;101482.63;;;23.84;52.15
53635;BME280;39542;-34.932;138.594;2023-03-21T00:52:30;101483.23;;;23.85;52.23
53635;BME280;39542;-34.932;138.594;2023-03-21T00:53:05;101480.91;;;23.82;52.35
53635;BME280;39542;-34.932;138.594;2023-03-21T00:53:40;101479.29;;;23.82;52.27
53635;BME280;39542;-34.932;138.594;2023-03-21T00:54:14;101477.31;;;23.84;52.21
53635;BME280;39542;-34.932;138.594;2023-03-21T00:54:48;101476.81;;;23.86;52.17
53635;BME280;39542;-34.932;138.594;2023-03-21T00:55:23;101476.23;;;23.87;52.22
53635;BME280;39542;-34.932;138.594;2023-03-21T00:55:58;101476.50;;;23.87;52.15
53635;BME280;39542;-34.932;138.594;2023-03-21T00:56:33;101472.15;;;23.85;52.26
53635;BME280;39542;-34.932;138.594;2023-03-21T00:57:08;101473.27;;;23.85;52.24
53635;BME280;39542;-34.932;138.594;2023-03-21T00:57:42;101474.76;;;23.84;52.23
53635;BME280;39542;-34.932;138.594;2023-03-21T00:58:17;101473.42;;;23.86;52.24
53635;BME280;39542;-34.932;138.594;2023-03-21T00:58:51;101473.36;;;23.85;52.28
53635;BME280;39542;-34.932;138.594;2023-03-21T00:59:26;101472.36;;;23.86;52.23
53635;BME280;39542;-34.932;138.594;2023-03-21T01:00:00;101472.77;;;23.88;52.27
53635;BME280;39542;-34.932;138.594;2023-03-21T01:00:36;101470.54;;;23.85;52.22
53635;BME280;39542;-34.932;138.594;2023-03-21T01:01:11;101472.41;;;23.85;52.22
53635;BME280;39542;-34.932;138.594;2023-03-21T01:01:45;101471.25;;;23.87;52.23
53635;BME280;39542;-34.932;138.594;2023-03-21T01:02:19;101469.20;;;23.88;52.24
53635;BME280;39542;-34.932;138.594;2023-03-21T01:02:54;101468.01;;;23.87;52.26
53635;BME280;39542;-34.932;138.594;2023-03-21T01:03:28;101466.72;;;23.85;52.28
53635;BME280;39542;-34.932;138.594;2023-03-21T01:04:04;101465.25;;;23.83;52.22
53635;BME280;39542;-34.932;138.594;2023-03-21T01:04:39;101463.32;;;23.85;52.32
53635;BME280;39542;-34.932;138.594;2023-03-21T01:05:13;101460.80;;;23.88;52.22
53635;BME280;39542;-34.932;138.594;2023-03-21T01:05:49;101458.56;;;23.89;52.20
53635;BME280;39542;-34.932;138.594;2023-03-21T01:06:23;101456.73;;;23.89;52.30
53635;BME280;39542;-34.932;138.594;2023-03-21T01:06:57;101454.65;;;23.88;52.22
53635;BME280;39542;-34.932;138.594;2023-03-21T01:07:33;101453.18;;;23.88;52.26
53635;BME280;39542;-34.932;138.594;2023-03-21T01:08:08;101452.65;;;23.88;52.23
53635;BME280;39542;-34.932;138.594;2023-03-21T01:08:44;101454.26;;;23.89;52.23
53635;BME280;39542;-34.932;138.594;2023-03-21T01:09:21;101453.63;;;23.89;52.23
53635;BME280;39542;-34.932;138.594;2023-03-21T01:09:56;101452.41;;;23.92;52.09
53635;BME280;39542;-34.932;138.594;2023-03-21T01:10:31;101450.64;;;23.90;52.17
53635;BME280;39542;-34.932;138.594;2023-03-21T01:11:08;101449.82;;;23.89;52.17
53635;BME280;39542;-34.932;138.594;2023-03-21T01:11:43;101450.41;;;23.90;52.21
53635;BME280;39542;-34.932;138.594;2023-03-21T01:12:18;101448.19;;;23.90;52.19
53635;BME280;39542;-34.932;138.594;2023-03-21T01:12:52;101448.32;;;23.89;52.27
53635;BME280;39542;-34.932;138.594;2023-03-21T01:13:27;101448.70;;;23.89;52.20
53635;BME280;39542;-34.932;138.594;2023-03-21T01:14:02;101443.46;;;23.88;52.24
53635;BME280;39542;-34.932;138.594;2023-03-21T01:14:37;101443.94;;;23.86;52.24
53635;BME280;39542;-34.932;138.594;2023-03-21T01:15:12;101441.80;;;23.89;52.18
53635;BME280;39542;-34.932;138.594;2023-03-21T01:15:48;101441.86;;;23.93;52.09
53635;BME280;39542;-34.932;138.594;2023-03-21T01:16:23;101440.93;;;23.92;52.14
53635;BME280;39542;-34.932;138.594;2023-03-21T01:16:57;101436.37;;;23.89;52.21
53635;BME280;39542;-34.932;138.594;2023-03-21T01:17:33;101437.59;;;23.88;52.17
53635;BME280;39542;-34.932;138.594;2023-03-21T01:18:07;101435.16;;;23.87;52.32
53635;BME280;39542;-34.932;138.594;2023-03-21T01:18:42;101433.23;;;23.90;52.19
53635;BME280;39542;-34.932;138.594;2023-03-21T01:19:18;101431.97;;;23.89;52.25
53635;BME280;39542;-34.932;138.594;2023-03-21T01:19:53;101432.13;;;23.91;52.18
53635;BME280;39542;-34.932;138.594;2023-03-21T01:20:28;101429.30;;;23.91;52.23
53635;BME280;39542;-34.932;138.594;2023-03-21T01:21:08;101432.05;;;23.90;52.22
53635;BME280;39542;-34.932;138.594;2023-03-21T01:21:43;101433.24;;;23.89;52.17
53635;BME280;39542;-34.932;138.594;2023-03-21T01:22:17;101433.88;;;23.91;52.17
53635;BME280;39542;-34.932;138.594;2023-03-21T01:22:52;101435.91;;;23.92;52.18
53635;BME280;39542;-34.932;138.594;2023-03-21T01:23:27;101435.27;;;23.91;52.17
53635;BME280;39542;-34.932;138.594;2023-03-21T01:24:03;101436.23;;;23.92;52.18
53635;BME280;39542;-34.932;138.594;2023-03-21T01:24:38;101436.68;;;23.91;52.19
53635;BME280;39542;-34.932;138.594;2023-03-21T01:25:13;101436.07;;;23.94;52.17
53635;BME280;39542;-34.932;138.594;2023-03-21T01:25:49;101436.25;;;23.96;52.10
53635;BME280;39542;-34.932;138.594;2023-03-21T01:26:25;101432.35;;;23.95;52.10
53635;BME280;39542;-34.932;138.594;2023-03-21T01:27:01;101430.52;;;23.93;52.14
53635;BME280;39542;-34.932;138.594;2023-03-21T01:27:35;101428.42;;;23.93;52.20
53635;BME280;39542;-34.932;138.594;2023-03-21T01:28:10;101425.52;;;23.91;52.24
53635;BME280;39542;-34.932;138.594;2023-03-21T01:28:45;101423.86;;;23.91;52.24
53635;BME280;39542;-34.932;138.594;2023-03-21T01:29:21;101421.86;;;23.92;52.21
53635;BME280;39542;-34.932;138.594;2023-03-21T01:29:55;101421.12;;;23.92;52.26
53635;BME280;39542;-34.932;138.594;2023-03-21T01:30:30;101422.22;;;23.92;52.17
53635;BME280;39542;-34.932;138.594;2023-03-21T01:31:06;101420.45;;;23.93;52.18
53635;BME280;39542;-34.932;138.594;2023-03-21T01:31:40;101419.57;;;23.92;52.23
53635;BME280;39542;-34.932;138.594;2023-03-21T01:32:15;101421.74;;;23.93;52.24
53635;BME280;39542;-34.932;138.594;2023-03-21T01:32:49;101419.42;;;23.92;52.15
53635;BME280;39542;-34.932;138.594;2023-03-21T01:33:24;101417.85;;;23.92;52.24
53635;BME280;39542;-34.932;138.594;2023-03-21T01:33:58;101418.74;;;23.90;52.27
53635;BME280;39542;-34.932;138.594;2023-03-21T01:34:34;101420.47;;;23.89;52.26
53635;BME280;39542;-34.932;138.594;2023-03-21T01:35:09;101423.24;;;23.88;52.30
53635;BME280;39542;-34.932;138.594;2023-03-21T01:35:43;101423.46;;;23.90;52.23
53635;BME280;39542;-34.932;138.594;2023-03-21T01:36:19;101426.09;;;23.92;52.27
53635;BME280;39542;-34.932;138.594;2023-03-21T01:36:54;101430.95;;;23.93;52.21
53635;BME280;39542;-34.932;138.594;2023-03-21T01:37:28;101434.60;;;23.91;52.25
53635;BME280;39542;-34.932;138.594;2023-03-21T01:38:03;101439.59;;;23.90;52.31
53635;BME280;39542;-34.932;138.594;2023-03-21T01:38:39;101442.55;;;23.90;52.29
53635;BME280;39542;-34.932;138.594;2023-03-21T01:39:13;101447.01;;;23.92;52.30
53635;BME280;39542;-34.932;138.594;2023-03-21T01:39:48;101450.10;;;23.93;52.29
53635;BME280;39542;-34.932;138.594;2023-03-21T01:40:29;101457.77;;;23.93;52.26
53635;BME280;39542;-34.932;138.594;2023-03-21T01:41:04;101463.02;;;23.94;52.34
53635;BME280;39542;-34.932;138.594;2023-03-21T01:41:41;101470.69;;;23.94;52.25
53635;BME280;39542;-34.932;138.594;2023-03-21T01:42:16;101480.32;;;23.95;52.28
53635;BME280;39542;-34.932;138.594;2023-03-21T01:42:50;101487.15;;;23.97;52.16
53635;BME280;39542;-34.932;138.594;2023-03-21T01:43:27;101493.55;;;23.96;52.28
53635;BME280;39542;-34.932;138.594;2023-03-21T01:44:02;101500.89;;;23.95;52.27
53635;BME280;39542;-34.932;138.594;2023-03-21T01:44:54;101505.28;;;23.94;52.32
53635;BME280;39542;-34.932;138.594;2023-03-21T01:46:38;101513.26;;;23.93;52.27
53635;BME280;39542;-34.932;138.594;2023-03-21T01:47:12;101523.74;;;23.97;52.29
53635;BME280;39542;-34.932;138.594;2023-03-21T01:47:47;101526.75;;;23.95;52.20
53635;BME280;39542;-34.932;138.594;2023-03-21T01:48:24;101529.89;;;23.93;52.38
53635;BME280;39542;-34.932;138.594;2023-03-21T01:49:03;101533.62;;;23.92;52.38
53635;BME280;39542;-34.932;138.594;2023-03-21T01:49:41;101537.95;;;23.94;52.34
53635;BME280;39542;-34.932;138.594;2023-03-21T01:50:18;101544.77;;;23.94;52.39
53635;BME280;39542;-34.932;138.594;2023-03-21T01:50:53;101559.44;;;23.95;52.33
53635;BME280;39542;-34.932;138.594;2023-03-21T01:51:32;101557.33;;;23.94;52.33
53635;BME280;39542;-34.932;138.594;2023-03-21T01:52:10;101565.11;;;23.94;52.39
53635;BME280;39542;-34.932;138.594;2023-03-21T01:52:46;101571.41;;;23.96;52.37
53635;BME280;39542;-34.932;138.594;2023-03-21T01:53:24;101576.83;;;23.97;52.39
53635;BME280;39542;-34.932;138.594;2023-03-21T01:54:00;101578.52;;;23.96;52.38
53635;BME280;39542;-34.932;138.594;2023-03-21T01:54:39;101577.87;;;23.94;52.40
53635;BME280;39542;-34.932;138.594;2023-03-21T01:55:16;101585.49;;;23.94;52.47
53635;BME280;39542;-34.932;138.594;2023-03-21T01:55:51;101589.91;;;23.94;52.44
53635;BME280;39542;-34.932;138.594;2023-03-21T01:56:28;101595.75;;;23.97;52.39
53635;BME280;39542;-34.932;138.594;2023-03-21T01:57:05;101598.89;;;23.97;52.39
53635;BME280;39542;-34.932;138.594;2023-03-21T01:57:44;101600.13;;;23.98;52.46
53635;BME280;39542;-34.932;138.594;2023-03-21T01:58:19;101602.85;;;23.98;52.40
53635;BME280;39542;-34.932;138.594;2023-03-21T01:58:57;101596.43;;;23.96;52.39
53635;BME280;39542;-34.932;138.594;2023-03-21T01:59:37;101598.07;;;23.96;52.39
53635;BME280;39542;-34.932;138.594;2023-03-21T02:00:15;101601.31;;;23.95;52.47
53635;BME280;39542;-34.932;138.594;2023-03-21T02:00:51;101603.20;;;23.95;52.50
53635;BME280;39542;-34.932;138.594;2023-03-21T02:01:25;101604.25;;;23.98;52.49
53635;BME280;39542;-34.932;138.594;2023-03-21T02:02:03;101605.17;;;23.97;52.47
53635;BME280;39542;-34.932;138.594;2023-03-21T02:02:39;101603.99;;;23.99;52.46
53635;BME280;39542;-34.932;138.594;2023-03-21T02:03:15;101602.32;;;23.97;52.54
53635;BME280;39542;-34.932;138.594;2023-03-21T02:03:50;101601.95;;;23.99;52.52
53635;BME280;39542;-34.932;138.594;2023-03-21T02:04:25;101602.50;;;23.98;52.53
53635;BME280;39542;-34.932;138.594;2023-03-21T02:05:03;101602.89;;;23.97;52.57
53635;BME280;39542;-34.932;138.594;2023-03-21T02:05:48;101601.89;;;23.95;52.64
53635;BME280;39542;-34.932;138.594;2023-03-21T02:06:31;101599.38;;;23.97;52.65
53635;BME280;39542;-34.932;138.594;2023-03-21T02:07:11;101595.98;;;23.99;52.72
53635;BME280;39542;-34.932;138.594;2023-03-21T02:07:48;101593.74;;;23.98;52.66
53635;BME280;39542;-34.932;138.594;2023-03-21T02:08:25;101590.65;;;23.98;52.71
53635;BME280;39542;-34.932;138.594;2023-03-21T02:09:04;101586.44;;;23.96;52.73
53635;BME280;39542;-34.932;138.594;2023-03-21T02:09:47;101584.77;;;23.95;52.81
53635;BME280;39542;-34.932;138.594;2023-03-21T02:10:23;101584.48;;;23.97;52.80
53635;BME280;39542;-34.932;138.594;2023-03-21T02:10:58;101583.60;;;23.97;52.80
53635;BME280;39542;-34.932;138.594;2023-03-21T02:11:33;101581.08;;;23.97;52.84
53635;BME280;39542;-34.932;138.594;2023-03-21T02:12:09;101576.81;;;23.98;52.85
53635;BME280;39542;-34.932;138.594;2023-03-21T02:12:43;101574.40;;;23.96;52.95
53635;BME280;39542;-34.932;138.594;2023-03-21T02:13:17;101569.32;;;23.96;52.92
53635;BME280;39542;-34.932;138.594;2023-03-21T02:13:52;101564.92;;;23.97;52.92
53635;BME280;39542;-34.932;138.594;2023-03-21T02:14:27;101560.08;;;23.98;52.96
53635;BME280;39542;-34.932;138.594;2023-03-21T02:15:03;101555.70;;;23.97;52.91
53635;BME280;39542;-34.932;138.594;2023-03-21T02:15:40;101551.54;;;23.95;52.92
53635;BME280;39542;-34.932;138.594;2023-03-21T02:16:19;101545.57;;;23.93;52.91
53635;BME280;39542;-34.932;138.594;2023-03-21T02:17:06;101538.47;;;23.97;52.92
53635;BME280;39542;-34.932;138.594;2023-03-21T02:17:47;101534.96;;;24.00;52.99
53635;BME280;39542;-34.932;138.594;2023-03-21T02:18:33;101531.57;;;23.97;52.97
53635;BME280;39542;-34.932;138.594;2023-03-21T02:19:31;101531.72;;;23.96;52.99
53635;BME280;39542;-34.932;138.594;2023-03-21T02:20:32;101531.43;;;23.96;53.09
53635;BME280;39542;-34.932;138.594;2023-03-21T02:22:02;101525.60;;;23.96;53.06
53635;BME280;39542;-34.932;138.594;2023-03-21T02:23:05;101514.84;;;23.98;53.13
53635;BME280;39542;-34.932;138.594;2023-03-21T02:24:06;101508.73;;;23.98;53.14
53635;BME280;39542;-34.932;138.594;2023-03-21T02:25:01;101500.14;;;23.96;53.05
53635;BME280;39542;-34.932;138.594;2023-03-21T02:25:56;101495.40;;;23.95;53.09
53635;BME280;39542;-34.932;138.594;2023-03-21T02:26:55;101486.93;;;23.93;53.20
53635;BME280;39542;-34.932;138.594;2023-03-21T02:27:36;101483.65;;;23.97;53.13
53635;BME280;39542;-34.932;138.594;2023-03-21T02:28:16;101480.99;;;23.97;53.21
53635;BME280;39542;-34.932;138.594;2023-03-21T02:28:57;101477.49;;;23.94;53.21
53635;BME280;39542;-34.932;138.594;2023-03-21T02:30:58;101477.10;;;23.93;53.23
53635;BME280;39542;-34.932;138.594;2023-03-21T02:31:43;101475.02;;;23.94;53.24
53635;BME280;39542;-34.932;138.594;2023-03-21T02:32:29;101474.84;;;23.93;53.21
53635;BME280;39542;-34.932;138.594;2023-03-21T02:33:27;101475.32;;;23.91;53.33
53635;BME280;39542;-34.932;138.594;2023-03-21T02:34:36;101472.44;;;23.91;53.34
53635;BME280;39542;-34.932;138.594;2023-03-21T02:35:29;101467.70;;;23.92;53.36
53635;BME280;39542;-34.932;138.594;2023-03-21T02:36:54;101463.80;;;23.93;53.33
53635;BME280;39542;-34.932;138.594;2023-03-21T02:37:33;101454.24;;;23.94;53.35
53635;BME280;39542;-34.932;138.594;2023-03-21T02:38:13;101448.30;;;23.92;53.53
53635;BME280;39542;-34.932;138.594;2023-03-21T02:38:53;101441.48;;;23.92;53.51
53635;BME280;39542;-34.932;138.594;2023-03-21T02:39:32;101437.61;;;23.91;53.50
53635;BME280;39542;-34.932;138.594;2023-03-21T02:40:14;101429.50;;;23.90;53.55
53635;BME280;39542;-34.932;138.594;2023-03-21T02:41:00;101424.89;;;23.90;53.65
53635;BME280;39542;-34.932;138.594;2023-03-21T02:41:44;101422.76;;;23.92;53.62
53635;BME280;39542;-34.932;138.594;2023-03-21T02:42:25;101418.67;;;23.93;53.69
53635;BME280;39542;-34.932;138.594;2023-03-21T02:43:08;101415.74;;;23.93;53.69
53635;BME280;39542;-34.932;138.594;2023-03-21T02:43:51;101411.64;;;23.93;53.77
53635;BME280;39542;-34.932;138.594;2023-03-21T02:44:32;101410.18;;;23.96;53.75
53635;BME280;39542;-34.932;138.594;2023-03-21T02:45:15;101409.31;;;23.95;53.70
53635;BME280;39542;-34.932;138.594;2023-03-21T02:45:53;101409.03;;;23.94;53.84
53635;BME280;39542;-34.932;138.594;2023-03-21T02:46:35;101404.44;;;23.92;53.86
53635;BME280;39542;-34.932;138.594;2023-03-21T02:47:16;101402.19;;;23.92;53.83
53635;BME280;39542;-34.932;138.594;2023-03-21T02:47:57;101401.13;;;23.96;53.69
53635;BME280;39542;-34.932;138.594;2023-03-21T02:48:36;101398.60;;;23.96;53.92
53635;BME280;39542;-34.932;138.594;2023-03-21T02:49:15;101398.21;;;23.96;53.81
53635;BME280;39542;-34.932;138.594;2023-03-21T02:49:58;101396.53;;;23.94;53.96
53635;BME280;39542;-34.932;138.594;2023-03-21T02:50:37;101394.65;;;23.91;54.06
53635;BME280;39542;-34.932;138.594;2023-03-21T02:51:17;101394.40;;;23.93;54.00
53635;BME280;39542;-34.932;138.594;2023-03-21T02:51:53;101394.25;;;23.94;53.94
53635;BME280;39542;-34.932;138.594;2023-03-21T02:52:30;101391.67;;;23.95;53.98
53635;BME280;39542;-34.932;138.594;2023-03-21T02:53:10;101389.15;;;23.96;53.92
53635;BME280;39542;-34.932;138.594;2023-03-21T02:53:49;101389.95;;;23.95;54.07
53635;BME280;39542;-34.932;138.594;2023-03-21T02:54:26;101387.66;;;23.96;53.96
53635;BME280;39542;-34.932;138.594;2023-03-21T02:55:02;101384.53;;;23.96;53.95
53635;BME280;39542;-34.932;138.594;2023-03-21T02:55:40;101382.48;;;23.95;53.92
53635;BME280;39542;-34.932;138.594;2023-03-21T02:56:15;101381.72;;;23.95;53.87
53635;BME280;39542;-34.932;138.594;2023-03-21T02:56:53;101381.42;;;23.94;53.91
53635;BME280;39542;-34.932;138.594;2023-03-21T02:57:28;101381.91;;;23.94;53.83
53635;BME280;39542;-34.932;138.594;2023-03-21T02:58:03;101380.74;;;23.96;53.87
53635;BME280;39542;-34.932;138.594;2023-03-21T02:58:40;101380.13;;;23.97;53.80
53635;BME280;39542;-34.932;138.594;2023-03-21T02:59:16;101378.53;;;23.96;53.83
53635;BME280;39542;-34.932;138.594;2023-03-21T02:59:52;101377.70;;;23.95;53.90
53635;BME280;39542;-34.932;138.594;2023-03-21T03:00:30;101376.57;;;23.94;53.91
53635;BME280;39542;-34.932;138.594;2023-03-21T03:01:06;101373.42;;;23.93;53.94
53635;BME280;39542;-34.932;138.594;2023-03-21T03:01:41;101370.15;;;23.95;53.87
53635;BME280;39542;-34.932;138.594;2023-03-21T03:02:16;101366.40;;;23.95;54.03
53635;BME280;39542;-34.932;138.594;2023-03-21T03:02:54;101367.54;;;23.95;54.01
53635;BME280;39542;-34.932;138.594;2023-03-21T03:03:28;101365.24;;;23.97;53.98
53635;BME280;39542;-34.932;138.594;2023-03-21T03:04:02;101365.71;;;23.96;53.95
53635;BME280;39542;-34.932;138.594;2023-03-21T03:04:37;101366.72;;;23.97;54.00
53635;BME280;39542;-34.932;138.594;2023-03-21T03:05:17;101366.15;;;23.97;53.88
53635;BME280;39542;-34.932;138.594;2023-03-21T03:05:54;101366.04;;;23.96;53.89
53635;BME280;39542;-34.932;138.594;2023-03-21T03:06:36;101370.78;;;23.95;53.92
53635;BME280;39542;-34.932;138.594;2023-03-21T03:07:25;101371.11;;;23.94;53.92
53635;BME280;39542;-34.932;138.594;2023-03-21T03:08:13;101370.70;;;23.95;53.84
53635;BME280;39542;-34.932;138.594;2023-03-21T03:09:04;101370.11;;;23.98;53.86
53635;BME280;39542;-34.932;138.594;2023-03-21T03:09:50;101370.57;;;23.97;53.77
53635;BME280;39542;-34.932;138.594;2023-03-21T03:10:40;101372.11;;;23.94;53.91
53635;BME280;39542;-34.932;138.594;2023-03-21T03:11:24;101369.87;;;23.93;53.99
53635;BME280;39542;-34.932;138.594;2023-03-21T03:12:10;101365.70;;;23.96;53.90
53635;BME280;39542;-34.932;138.594;2023-03-21T03:12:53;101367.07;;;23.97;53.80